createdAt,value
2019-05-16T00:02:01.375Z,73.40
2019-05-16T00:04:30.384Z,73.40
2019-05-16T00:07:00.835Z,73.20
2019-05-16T00:09:31.235Z,73.50
2019-05-16T00:12:01.638Z,73.40
2019-05-16T00:14:32.116Z,73.70
2019-05-16T00:17:02.482Z,73.80
2019-05-16T00:19:32.900Z,73.90
2019-05-16T00:22:03.289Z,74.30
2019-05-16T00:24:33.669Z,74.10
2019-05-16T00:27:04.064Z,74.20
2019-05-16T00:29:34.428Z,74.30
2019-05-16T00:32:04.857Z,74.30
2019-05-16T00:34:35.225Z,74.20
2019-05-16T00:37:05.628Z,74.20
2019-05-16T00:39:36.132Z,74.20
2019-05-16T00:42:08.592Z,74.20
2019-05-16T00:44:38.851Z,74.30
2019-05-16T00:47:09.235Z,74.20
2019-05-16T00:49:39.621Z,74.30
2019-05-16T00:52:10.108Z,74.60
2019-05-16T00:54:40.507Z,74.90
2019-05-16T00:57:11.514Z,75.00
2019-05-16T00:59:42.423Z,74.90
2019-05-16T01:02:12.784Z,74.90
2019-05-16T01:04:44.639Z,75.10
2019-05-16T01:07:15.256Z,74.80
2019-05-16T01:09:45.668Z,75.20
2019-05-16T01:12:17.879Z,75.00
2019-05-16T01:14:48.285Z,75.30
2019-05-16T01:17:18.647Z,75.20
2019-05-16T01:19:49.042Z,75.40
2019-05-16T01:22:20.903Z,75.30
2019-05-16T01:24:51.352Z,75.20
2019-05-16T01:27:21.717Z,75.40
2019-05-16T01:29:52.128Z,75.20
2019-05-16T01:32:23.395Z,75.10
2019-05-16T01:34:53.874Z,75.00
2019-05-16T01:37:24.241Z,74.90
2019-05-16T01:39:54.631Z,75.10
2019-05-16T01:42:25.160Z,75.20
2019-05-16T01:44:57.704Z,74.90
2019-05-16T01:47:28.784Z,75.00
2019-05-16T01:50:00.102Z,74.80
2019-05-16T01:52:30.613Z,75.10
2019-05-16T01:55:01.042Z,75.20
2019-05-16T01:57:31.458Z,75.30
2019-05-16T02:00:01.891Z,75.30
2019-05-16T02:02:32.372Z,75.20
2019-05-16T02:05:02.798Z,75.10
2019-05-16T02:07:33.201Z,74.80
2019-05-16T02:10:04.579Z,74.80
2019-05-16T02:12:34.972Z,74.80
2019-05-16T02:15:08.084Z,74.90
2019-05-16T02:17:38.729Z,75.10
2019-05-16T02:20:09.355Z,74.80
2019-05-16T02:22:39.836Z,74.90
2019-05-16T02:25:10.622Z,74.50
2019-05-16T02:27:41.245Z,74.70
2019-05-16T02:30:12.774Z,74.60
2019-05-16T02:32:43.344Z,74.60
2019-05-16T02:35:13.875Z,74.40
2019-05-16T02:37:44.266Z,74.20
2019-05-16T02:40:20.816Z,74.30
2019-05-16T02:42:51.511Z,74.40
2019-05-16T02:45:24.554Z,74.30
2019-05-16T02:47:54.264Z,73.90
2019-05-16T02:50:24.808Z,74.10
2019-05-16T02:52:55.300Z,74.10
2019-05-16T02:55:25.703Z,74.00
2019-05-16T02:57:56.162Z,73.80
2019-05-16T03:00:36.962Z,73.70
2019-05-16T03:03:07.451Z,74.10
2019-05-16T03:05:38.015Z,74.10
2019-05-16T03:08:11.754Z,74.20
2019-05-16T03:10:41.451Z,74.00
2019-05-16T03:13:12.007Z,73.70
2019-05-16T03:15:45.087Z,73.60
2019-05-16T03:18:17.566Z,73.80
2019-05-16T03:20:51.200Z,73.90
2019-05-16T03:23:21.959Z,73.70
2019-05-16T03:25:52.401Z,73.80
2019-05-16T03:28:22.876Z,73.70
2019-05-16T03:30:55.178Z,73.60
2019-05-16T03:33:32.675Z,73.80
2019-05-16T03:35:57.789Z,73.50
2019-05-16T03:38:30.601Z,73.60
2019-05-16T03:41:01.104Z,73.60
2019-05-16T03:43:31.636Z,73.50
2019-05-16T03:46:02.747Z,73.30
2019-05-16T03:48:33.290Z,73.20
2019-05-16T03:51:04.493Z,73.20
2019-05-16T03:53:34.931Z,73.00
2019-05-16T03:56:05.286Z,72.70
2019-05-16T03:58:35.685Z,72.40
2019-05-16T04:01:06.109Z,72.50
2019-05-16T04:03:40.958Z,72.70
2019-05-16T04:06:11.860Z,72.80
2019-05-16T04:08:42.170Z,72.40
2019-05-16T04:11:16.225Z,72.70
2019-05-16T04:13:46.201Z,72.60
2019-05-16T04:16:16.584Z,72.40
2019-05-16T04:18:46.985Z,72.20
2019-05-16T04:21:21.811Z,72.30
2019-05-16T04:23:50.986Z,72.20
2019-05-16T04:26:21.988Z,72.20
2019-05-16T04:28:52.448Z,71.80
2019-05-16T04:31:22.858Z,71.80
2019-05-16T04:33:53.337Z,71.90
2019-05-16T04:36:25.367Z,71.80
2019-05-16T04:38:55.735Z,71.80
2019-05-16T04:41:26.108Z,71.50
2019-05-16T04:44:00.551Z,71.30
2019-05-16T04:46:31.261Z,71.30
2019-05-16T04:49:01.687Z,71.40
2019-05-16T04:51:32.391Z,71.50
2019-05-16T04:54:07.136Z,71.70
2019-05-16T04:56:36.426Z,71.50
2019-05-16T04:59:06.901Z,71.60
2019-05-16T05:01:37.366Z,71.60
2019-05-16T05:04:11.768Z,71.40
2019-05-16T05:06:42.214Z,72.00
2019-05-16T05:09:12.644Z,70.90
2019-05-16T05:11:43.010Z,71.00
2019-05-16T05:14:13.428Z,70.80
2019-05-16T05:16:43.802Z,70.30
2019-05-16T05:19:14.204Z,69.70
2019-05-16T05:21:44.563Z,70.00
2019-05-16T05:24:14.960Z,69.50
2019-05-16T05:26:45.344Z,69.20
2019-05-16T05:29:15.769Z,69.10
2019-05-16T05:31:46.211Z,68.70
2019-05-16T05:34:16.643Z,68.50
2019-05-16T05:36:51.021Z,68.90
2019-05-16T05:39:20.924Z,68.70
2019-05-16T05:41:51.368Z,68.90
2019-05-16T05:44:21.770Z,68.70
2019-05-16T05:46:52.161Z,69.00
2019-05-16T05:49:25.516Z,69.10
2019-05-16T05:51:55.941Z,69.10
2019-05-16T05:54:27.149Z,69.10
2019-05-16T05:56:57.544Z,69.10
2019-05-16T05:59:30.424Z,69.20
2019-05-16T06:02:00.894Z,69.20
2019-05-16T06:04:33.022Z,69.20
2019-05-16T06:07:03.459Z,68.90
2019-05-16T06:09:35.319Z,68.70
2019-05-16T06:12:07.518Z,68.70
2019-05-16T06:14:37.839Z,68.40
2019-05-16T06:17:11.262Z,68.00
2019-05-16T06:19:40.348Z,67.60
2019-05-16T06:22:10.833Z,67.20
2019-05-16T06:24:41.204Z,66.90
2019-05-16T06:27:11.594Z,66.40
2019-05-16T06:29:42.408Z,66.10
2019-05-16T06:32:12.768Z,64.90
2019-05-16T06:34:43.152Z,64.20
2019-05-16T06:37:13.723Z,63.60
2019-05-16T06:39:45.375Z,63.40
2019-05-16T06:42:16.036Z,63.20
2019-05-16T06:44:46.440Z,62.40
2019-05-16T06:47:20.692Z,62.00
2019-05-16T06:49:50.863Z,61.80
2019-05-16T06:52:21.010Z,61.30
2019-05-16T06:54:53.847Z,61.00
2019-05-16T06:57:23.500Z,60.80
2019-05-16T06:59:53.930Z,61.00
2019-05-16T07:02:29.855Z,61.60
2019-05-16T07:04:56.442Z,61.50
2019-05-16T07:07:27.027Z,62.00
2019-05-16T07:10:03.566Z,61.60
2019-05-16T07:12:33.389Z,61.40
2019-05-16T07:15:02.312Z,61.80
2019-05-16T07:17:32.805Z,61.90
2019-05-16T07:20:03.227Z,61.30
2019-05-16T07:22:33.671Z,61.30
2019-05-16T07:25:06.545Z,61.80
2019-05-16T07:27:37.045Z,61.90
2019-05-16T07:30:10.572Z,61.50
2019-05-16T07:32:40.760Z,61.60
2019-05-16T07:35:11.551Z,61.40
2019-05-16T07:37:41.934Z,61.00
2019-05-16T07:40:20.089Z,60.60
2019-05-16T07:42:44.640Z,60.70
2019-05-16T07:45:15.182Z,60.70
2019-05-16T07:47:45.579Z,60.70
2019-05-16T07:50:19.972Z,60.80
2019-05-16T07:52:51.133Z,60.60
2019-05-16T07:55:21.817Z,60.70
2019-05-16T07:57:52.274Z,60.60
2019-05-16T08:00:45.910Z,60.30
2019-05-16T08:02:54.726Z,60.20
2019-05-16T08:05:25.101Z,60.40
2019-05-16T08:07:55.670Z,60.30
2019-05-16T08:10:38.059Z,61.00
2019-05-16T08:13:03.404Z,61.00
2019-05-16T08:15:30.499Z,61.00
2019-05-16T08:18:03.251Z,61.20
2019-05-16T08:20:33.096Z,61.20
2019-05-16T08:23:03.505Z,61.10
2019-05-16T08:25:33.888Z,61.60
2019-05-16T08:28:04.287Z,62.30
2019-05-16T08:30:36.204Z,62.50
2019-05-16T08:33:13.554Z,62.70
2019-05-16T08:35:41.813Z,62.80
2019-05-16T08:41:04.394Z,62.70
2019-05-16T08:43:21.356Z,62.70
2019-05-16T08:45:51.613Z,62.90
2019-05-16T08:48:23.465Z,62.80
2019-05-16T08:50:54.969Z,63.30
2019-05-16T08:53:25.553Z,63.60
2019-05-16T08:55:55.985Z,63.90
2019-05-16T08:58:26.422Z,64.80
2019-05-16T09:00:56.829Z,64.10
2019-05-16T09:03:27.360Z,64.10
2019-05-16T09:06:02.999Z,64.60
2019-05-16T09:08:31.308Z,64.80
2019-05-16T09:10:34.703Z,62.90
2019-05-16T09:11:15.864Z,65.00
2019-05-16T09:13:36.847Z,65.30
2019-05-16T09:16:07.786Z,65.10
2019-05-16T09:18:41.287Z,65.00
2019-05-16T09:21:10.205Z,65.00
2019-05-16T09:23:40.683Z,65.10
2019-05-16T09:26:15.417Z,65.10
2019-05-16T09:28:47.855Z,64.70
2019-05-16T09:31:17.912Z,65.00
2019-05-16T09:33:48.688Z,64.60
2019-05-16T09:36:19.070Z,64.20
2019-05-16T09:38:49.610Z,64.10
2019-05-16T09:41:20.143Z,64.10
2019-05-16T09:43:50.588Z,64.10
2019-05-16T09:46:21.040Z,63.90
2019-05-16T09:49:11.639Z,63.70
2019-05-16T09:51:23.508Z,63.60
2019-05-16T09:53:56.770Z,63.70
2019-05-16T09:56:27.249Z,63.70
2019-05-16T09:58:57.707Z,63.70
2019-05-16T10:01:28.198Z,63.40
2019-05-16T10:03:58.564Z,63.10
2019-05-16T10:06:30.420Z,63.00
2019-05-16T10:09:00.912Z,62.80
2019-05-16T10:11:32.765Z,62.90
2019-05-16T10:14:07.235Z,62.70
2019-05-16T10:16:37.202Z,62.90
2019-05-16T10:19:07.671Z,62.70
2019-05-16T10:21:38.219Z,62.60
2019-05-16T10:24:08.998Z,62.80
2019-05-16T10:26:39.701Z,62.90
2019-05-16T10:29:11.690Z,62.60
2019-05-16T10:31:49.428Z,62.60
2019-05-16T10:34:17.386Z,62.70
2019-05-16T10:36:48.146Z,62.90
2019-05-16T10:39:18.804Z,63.00
2019-05-16T10:41:49.470Z,63.30
2019-05-16T10:44:20.171Z,63.30
2019-05-16T10:46:50.826Z,62.90
2019-05-16T10:49:36.160Z,62.00
2019-05-16T10:51:53.227Z,61.30
2019-05-16T10:54:23.925Z,60.20
2019-05-16T10:56:57.449Z,58.60
2019-05-16T11:02:01.191Z,56.50
2019-05-16T11:04:52.868Z,55.30
2019-05-16T11:07:08.258Z,53.50
2019-05-16T11:09:39.455Z,52.00
2019-05-16T11:12:10.199Z,51.20
2019-05-16T11:14:40.792Z,50.50
2019-05-16T11:17:12.946Z,48.80
2019-05-16T11:19:46.421Z,48.50
2019-05-16T11:22:18.634Z,49.00
2019-05-16T11:24:50.225Z,50.10
2019-05-16T11:27:22.384Z,50.80
2019-05-16T11:29:53.065Z,51.30
2019-05-16T11:32:26.978Z,51.60
2019-05-16T11:34:57.599Z,51.40
2019-05-16T11:37:28.475Z,51.60
2019-05-16T11:39:59.122Z,52.40
2019-05-16T11:42:33.101Z,52.90
2019-05-16T11:45:09.486Z,53.00
2019-05-16T11:47:39.313Z,53.10
2019-05-16T11:50:12.212Z,53.10
2019-05-16T11:52:42.754Z,53.00
2019-05-16T11:55:13.383Z,52.80
2019-05-16T11:57:47.612Z,52.90
2019-05-16T12:00:18.366Z,53.10
2019-05-16T12:02:50.518Z,53.60
2019-05-16T12:05:21.059Z,53.80
2019-05-16T12:07:51.490Z,54.00
2019-05-16T12:10:22.793Z,54.30
2019-05-16T12:12:53.352Z,54.70
2019-05-16T12:15:23.733Z,55.20
2019-05-16T12:18:03.872Z,55.40
2019-05-16T12:20:27.843Z,55.40
2019-05-16T12:22:58.295Z,55.40
2019-05-16T12:25:30.134Z,55.70
2019-05-16T12:28:03.707Z,55.80
2019-05-16T12:30:34.337Z,55.60
2019-05-16T12:33:07.121Z,55.50
2019-05-16T12:35:40.076Z,55.60
2019-05-16T12:38:11.704Z,54.90
2019-05-16T12:40:42.435Z,54.00
2019-05-16T12:43:12.995Z,53.10
2019-05-16T12:45:43.448Z,54.70
2019-05-16T12:48:19.346Z,52.30
2019-05-16T12:50:48.046Z,51.90
2019-05-16T12:53:18.064Z,51.30
2019-05-16T12:55:48.521Z,51.00
2019-05-16T12:58:25.044Z,51.00
2019-05-16T13:00:57.419Z,51.00
2019-05-16T13:03:23.392Z,50.90
2019-05-16T13:05:53.900Z,50.50
2019-05-16T13:08:26.635Z,50.30
2019-05-16T13:10:57.805Z,51.10
2019-05-16T13:13:28.440Z,51.50
2019-05-16T13:15:58.998Z,52.40
2019-05-16T13:18:29.549Z,52.70
2019-05-16T13:21:00.098Z,52.80
2019-05-16T13:23:30.997Z,53.00
2019-05-16T13:26:01.461Z,53.90
2019-05-16T13:28:33.537Z,54.30
2019-05-16T13:31:03.906Z,54.30
2019-05-16T13:33:36.699Z,54.50
2019-05-16T13:36:07.524Z,54.70
2019-05-16T13:38:38.217Z,54.80
2019-05-16T13:41:08.689Z,54.70
2019-05-16T13:43:39.110Z,54.60
2019-05-16T13:46:09.550Z,54.80
2019-05-16T13:48:40.235Z,54.90
2019-05-16T13:51:15.527Z,54.30
2019-05-16T13:53:43.701Z,54.10
2019-05-16T13:56:17.352Z,54.30
2019-05-16T13:58:48.163Z,54.60
2019-05-16T14:01:21.797Z,54.90
2019-05-16T14:03:50.857Z,55.60
2019-05-16T14:06:21.329Z,56.10
2019-05-16T14:08:52.719Z,56.30
2019-05-16T14:11:23.402Z,56.10
2019-05-16T14:13:56.237Z,55.40
2019-05-16T14:16:27.845Z,54.20
2019-05-16T14:18:58.438Z,53.00
2019-05-16T14:21:29.088Z,51.90
2019-05-16T14:23:59.386Z,51.30
2019-05-16T14:26:29.839Z,51.00
2019-05-16T14:29:00.502Z,50.50
2019-05-16T14:31:30.926Z,49.80
2019-05-16T14:34:01.573Z,49.80
2019-05-16T14:36:32.168Z,49.50
2019-05-16T14:39:03.307Z,49.70
2019-05-16T14:41:33.843Z,50.00
2019-05-16T14:44:04.562Z,49.70
2019-05-16T14:46:37.798Z,49.20
2019-05-16T14:49:07.653Z,49.70
2019-05-16T14:51:38.837Z,49.20
2019-05-16T14:54:09.436Z,49.10
2019-05-16T14:56:40.784Z,49.20
2019-05-16T14:59:11.310Z,49.40
2019-05-16T15:01:41.823Z,49.40
2019-05-16T15:04:15.315Z,49.60
2019-05-16T15:06:48.082Z,49.80
2019-05-16T15:09:18.851Z,50.00
2019-05-16T15:11:49.481Z,50.60
2019-05-16T15:14:20.128Z,51.20
2019-05-16T15:16:51.999Z,51.40
2019-05-16T15:19:22.726Z,51.50
2019-05-16T15:21:53.155Z,51.90
2019-05-16T15:24:23.775Z,52.20
2019-05-16T15:27:00.899Z,52.40
2019-05-16T15:29:27.043Z,52.60
2019-05-16T15:31:57.566Z,52.90
2019-05-16T15:34:30.295Z,53.10
2019-05-16T15:37:00.233Z,53.30
2019-05-16T15:39:30.679Z,53.20
2019-05-16T15:42:01.094Z,53.30
2019-05-16T15:44:31.514Z,53.70
2019-05-16T15:47:01.969Z,54.00
2019-05-16T15:49:32.384Z,54.10
2019-05-16T15:52:02.927Z,54.00
2019-05-16T15:54:33.481Z,54.00
2019-05-16T15:57:03.921Z,53.90
2019-05-16T15:59:34.332Z,53.90
2019-05-16T16:02:07.107Z,53.90
2019-05-16T16:04:37.441Z,53.90
2019-05-16T16:07:08.101Z,53.80
2019-05-16T16:09:38.518Z,54.10
2019-05-16T16:12:10.976Z,54.50
2019-05-16T16:14:41.471Z,54.90
2019-05-16T16:17:11.863Z,55.30
2019-05-16T16:19:43.337Z,55.50
2019-05-16T16:22:13.722Z,55.80
2019-05-16T16:24:44.139Z,56.00
2019-05-16T16:27:16.884Z,56.50
2019-05-16T16:29:48.082Z,56.90
2019-05-16T16:32:18.638Z,57.00
2019-05-16T16:34:49.213Z,57.30
2019-05-16T16:37:19.636Z,57.50
2019-05-16T16:39:50.124Z,57.50
2019-05-16T16:42:20.603Z,58.00
2019-05-16T16:44:51.083Z,58.10
2019-05-16T16:47:22.930Z,58.30
2019-05-16T16:49:53.438Z,58.50
2019-05-16T16:52:23.884Z,58.70
2019-05-16T16:54:56.686Z,58.90
2019-05-16T16:57:27.063Z,59.10
2019-05-16T16:59:57.635Z,59.20
2019-05-16T17:02:28.055Z,59.00
2019-05-16T17:05:01.526Z,58.90
2019-05-16T17:07:30.715Z,59.70
2019-05-16T17:10:01.149Z,59.40
2019-05-16T17:12:31.575Z,59.80
2019-05-16T17:15:02.029Z,60.00
2019-05-16T17:17:32.452Z,60.10
2019-05-16T17:20:02.873Z,60.10
2019-05-16T17:22:33.326Z,60.00
2019-05-16T17:25:07.118Z,60.00
2019-05-16T17:27:37.783Z,59.90
2019-05-16T17:30:17.144Z,59.80
2019-05-16T17:32:49.165Z,60.00
2019-05-16T17:35:26.730Z,60.00
2019-05-16T17:37:57.308Z,59.80
2019-05-16T17:40:27.826Z,59.90
2019-05-16T17:42:58.197Z,59.60
2019-05-16T17:45:28.944Z,59.50
2019-05-16T17:47:59.422Z,59.50
2019-05-16T17:50:29.799Z,59.30
2019-05-16T17:53:00.233Z,59.20
2019-05-16T17:55:30.615Z,59.00
2019-05-16T17:58:01.027Z,58.90
2019-05-16T18:00:31.469Z,58.80
2019-05-16T18:03:02.671Z,58.90
2019-05-16T18:05:33.137Z,58.90
2019-05-16T18:08:03.523Z,58.90
2019-05-16T18:10:36.318Z,59.00
2019-05-16T18:13:07.998Z,59.20
2019-05-16T18:15:38.503Z,59.30
2019-05-16T18:18:08.900Z,59.30
2019-05-16T18:20:39.466Z,59.40
2019-05-16T18:23:09.868Z,59.60
2019-05-16T18:25:40.232Z,59.80
2019-05-16T18:28:11.467Z,60.20
2019-05-16T18:30:41.867Z,60.50
2019-05-16T18:33:12.345Z,60.60
2019-05-16T18:35:42.728Z,61.30
2019-05-16T18:38:14.649Z,60.60
2019-05-16T18:40:47.247Z,60.70
2019-05-16T18:43:17.144Z,60.90
2019-05-16T18:45:47.639Z,61.00
2019-05-16T18:48:18.050Z,61.20
2019-05-16T18:50:48.534Z,61.60
2019-05-16T18:53:18.951Z,61.80
2019-05-16T18:55:50.935Z,61.90
2019-05-16T18:58:22.805Z,62.10
2019-05-16T19:00:53.314Z,62.10
2019-05-16T19:03:23.701Z,62.30
2019-05-16T19:05:54.151Z,62.40
2019-05-16T19:08:26.880Z,62.50
2019-05-16T19:11:00.039Z,62.40
2019-05-16T19:13:29.677Z,62.30
2019-05-16T19:16:00.129Z,62.50
2019-05-16T19:18:30.520Z,62.50
2019-05-16T19:21:00.982Z,62.60
2019-05-16T19:23:31.370Z,62.60
2019-05-16T19:26:01.794Z,62.50
2019-05-16T19:28:32.235Z,62.50
2019-05-16T19:31:02.649Z,62.90
2019-05-16T19:33:34.552Z,62.90
2019-05-16T19:36:07.280Z,62.80
2019-05-16T19:38:37.910Z,62.90
2019-05-16T19:41:08.367Z,63.00
2019-05-16T19:43:38.800Z,63.20
2019-05-16T19:46:09.191Z,64.20
2019-05-16T19:48:39.680Z,63.50
2019-05-16T19:51:12.531Z,63.50
2019-05-16T19:53:42.928Z,63.50
2019-05-16T19:56:14.764Z,63.50
2019-05-16T19:58:46.761Z,63.40
2019-05-16T20:01:17.252Z,63.50
2019-05-16T20:03:47.711Z,63.50
2019-05-16T20:06:18.178Z,63.90
2019-05-16T20:08:48.614Z,64.10
2019-05-16T20:11:19.008Z,64.20
2019-05-16T20:13:49.456Z,64.50
2019-05-16T20:16:19.917Z,64.90
2019-05-16T20:18:52.831Z,65.00
2019-05-16T20:21:27.357Z,65.10
2019-05-16T20:23:56.909Z,65.00
2019-05-16T20:26:27.427Z,65.10
2019-05-16T20:28:59.491Z,65.00
2019-05-16T20:31:30.072Z,65.10
2019-05-16T20:34:00.538Z,65.10
2019-05-16T20:36:32.474Z,65.80
2019-05-16T20:39:03.121Z,65.20
2019-05-16T20:41:36.747Z,65.30
2019-05-16T20:44:07.413Z,65.40
2019-05-16T20:46:37.826Z,65.50
2019-05-16T20:49:08.198Z,65.50
2019-05-16T20:51:39.442Z,65.40
2019-05-16T20:54:09.814Z,65.40
2019-05-16T20:56:40.238Z,65.50
2019-05-16T20:59:10.622Z,65.40
2019-05-16T21:01:41.206Z,65.60
2019-05-16T21:04:11.584Z,65.50
2019-05-16T21:06:56.798Z,65.50
2019-05-16T21:09:14.111Z,65.50
2019-05-16T21:11:46.822Z,65.70
2019-05-16T21:14:16.599Z,65.80
2019-05-16T21:16:49.486Z,66.00
2019-05-16T21:19:19.101Z,66.20
2019-05-16T21:21:49.577Z,66.30
2019-05-16T21:24:22.165Z,66.50
2019-05-16T21:26:52.926Z,66.40
2019-05-16T21:29:23.301Z,66.50
2019-05-16T21:31:53.708Z,66.50
2019-05-16T21:34:27.226Z,66.80
2019-05-16T21:37:11.016Z,67.00
2019-05-16T21:39:29.966Z,67.30
2019-05-16T21:42:00.328Z,67.50
2019-05-16T21:44:32.244Z,67.70
2019-05-16T21:47:02.684Z,67.80
2019-05-16T21:49:36.606Z,67.90
2019-05-16T21:52:07.461Z,68.00
2019-05-16T21:54:37.861Z,67.90
2019-05-16T21:57:08.251Z,67.90
2019-05-16T21:59:38.678Z,67.80
2019-05-16T22:02:09.058Z,67.80
2019-05-16T22:04:39.459Z,67.90
2019-05-16T22:07:10.029Z,68.20
2019-05-16T22:09:40.438Z,68.30
2019-05-16T22:12:10.830Z,68.50
2019-05-16T22:14:46.639Z,68.70
2019-05-16T22:17:16.948Z,68.80
2019-05-16T22:19:47.642Z,69.00
2019-05-16T22:22:18.084Z,69.00
2019-05-16T22:24:49.317Z,69.20
2019-05-16T22:27:19.942Z,69.40
2019-05-16T22:29:50.510Z,69.60
2019-05-16T22:32:21.087Z,69.60
2019-05-16T22:34:51.551Z,69.40
2019-05-16T22:37:21.955Z,69.30
2019-05-16T22:39:52.370Z,69.40
2019-05-16T22:42:22.852Z,69.40
2019-05-16T22:44:53.216Z,69.60
2019-05-16T22:47:23.636Z,69.60
2019-05-16T22:49:56.590Z,69.60
2019-05-16T22:52:26.573Z,69.80
2019-05-16T22:54:57.074Z,69.90
2019-05-16T22:57:27.502Z,70.30
2019-05-16T22:59:57.872Z,70.50
2019-05-16T23:02:29.873Z,70.60
2019-05-16T23:05:00.278Z,70.90
2019-05-16T23:07:30.671Z,71.20
2019-05-16T23:10:02.577Z,71.30
2019-05-16T23:12:32.953Z,71.60
2019-05-16T23:15:03.769Z,71.80
2019-05-16T23:17:34.150Z,71.90
2019-05-16T23:20:06.337Z,72.00
2019-05-16T23:22:36.980Z,72.30
2019-05-16T23:25:07.375Z,72.30
2019-05-16T23:27:37.847Z,72.30
2019-05-16T23:30:09.521Z,72.50
2019-05-16T23:32:39.956Z,72.50
2019-05-16T23:35:10.535Z,72.60
2019-05-16T23:37:42.412Z,72.90
2019-05-16T23:40:14.309Z,73.20
2019-05-16T23:42:46.461Z,73.40
2019-05-16T23:45:17.359Z,73.50
2019-05-16T23:47:47.841Z,73.50
2019-05-16T23:50:18.245Z,73.70
2019-05-16T23:52:50.184Z,73.80
2019-05-16T23:55:20.641Z,74.00
2019-05-16T23:57:51.045Z,74.10
